SBFZ/FOR METAR and TAF weather

Enter ICAO airport designator
Station Type Date Time Source
SBFZ METAR 2021/09/24 05:00 UTC NOAA

SBFZ 240500Z 11011KT 9999 BKN017 27/23 Q1013


Station Type Date Time Source
SBFZ Decoded METAR 2021/09/24 05:00 UTC NOAA

Fortaleza / pinto Martins , Brazil (SBFZ) 03-47S 038-32W 25M
Sep 24, 2021 - 01:00 AM EDT / 2021.09.24 0500 UTC
Wind: from the ESE (110 degrees) at 13 MPH (11 KT):0
Visibility: greater than 7 mile(s):0
Sky conditions: mostly cloudy
Temperature: 80 F (27 C)
Dew Point: 73 F (23 C)
Relative Humidity: 78%
Pressure (altimeter): 29.91 in. Hg (1013 hPa)
ob: SBFZ 240500Z 11011KT 9999 BKN017 27/23 Q1013
cycle: 5

Station Type Date Time Source
SBFZ TAF 2021/09/24 06:27 UTC NOAA

TAF SBFZ 240300Z 2406/2506 09005KT 9999 FEW020 TX31/2416Z TN26/2506Z
BECMG 2412/2414 11015KT BKN025
BECMG 2418/2420 09008KT FEW018
RMK PGY

Example: see airport list